Time;durP1;ratioP1;P1;durP2;ratioP2;P2;SDS_P1;SDS_P2;PMS_P1;PMS_P2;Temp;Humidity;BMP_temperature;BMP_pressure;BME280_temperature;BME280_humidity;BME280_pressure;Samples;Min_cycle;Max_cycle;Signal;HPM_P1;HPM_P2
2022/08/07 00:01:53;;;;;;;13.72;12.43;;;;;;;19.08;74.87;95628.23;1716315;84;21039;-70
2022/08/07 00:04:20;;;;;;;15.80;12.90;;;;;;;19.02;75.75;95633.88;1716476;84;21012;-70
2022/08/07 00:06:47;;;;;;;13.22;11.73;;;;;;;19.03;75.60;95630.28;1716344;84;21031;-70
2022/08/07 00:09:13;;;;;;;14.58;12.80;;;;;;;19.05;75.87;95636.42;1716381;84;21473;-70
2022/08/07 00:11:40;;;;;;;13.22;11.90;;;;;;;19.05;75.62;95626.17;1716344;84;21593;-70
2022/08/07 00:14:07;;;;;;;12.78;11.57;;;;;;;18.98;76.04;95626.50;1716257;84;21553;-70
2022/08/07 00:16:34;;;;;;;13.08;11.50;;;;;;;18.98;76.04;95626.50;1716537;84;21035;-70
2022/08/07 00:19:00;;;;;;;12.43;10.32;;;;;;;18.98;75.55;95628.32;1716483;84;21446;-70
2022/08/07 00:21:27;;;;;;;11.53;10.32;;;;;;;18.89;76.30;95626.96;1716344;84;21828;-70
2022/08/07 00:23:53;;;;;;;11.68;10.58;;;;;;;18.84;75.96;95630.34;1716398;83;21082;-70
2022/08/07 00:26:20;;;;;;;11.90;10.65;;;;;;;18.76;76.62;95629.88;1716353;84;21089;-70
2022/08/07 00:28:47;;;;;;;12.13;10.78;;;;;;;18.70;76.43;95634.17;1716144;84;21495;-70
2022/08/07 00:31:14;;;;;;;12.25;11.12;;;;;;;18.67;76.36;95635.63;1716344;84;21039;-70
2022/08/07 00:33:41;;;;;;;12.75;11.45;;;;;;;18.72;76.79;95634.93;1719582;83;21078;-70
2022/08/07 00:36:09;;;;;;;13.03;10.85;;;;;;;18.73;76.54;95634.00;1724224;83;21544;-70
2022/08/07 00:38:35;;;;;;;12.98;10.18;;;;;;;18.75;75.98;95637.03;1724338;83;21007;-70
2022/08/07 00:41:05;;;;;;;15.70;11.68;;;;;;;18.71;76.31;95633.21;1724323;82;21035;-70
2022/08/07 00:43:31;;;;;;;12.58;10.85;;;;;;;18.66;76.49;95640.12;1724249;83;21042;-70
2022/08/07 00:46:00;;;;;;;12.60;10.95;;;;;;;18.70;76.23;95643.52;1724424;82;21031;-70
2022/08/07 00:48:27;;;;;;;12.73;10.32;;;;;;;18.68;76.79;95634.70;1724349;83;21007;-70
2022/08/07 00:50:55;;;;;;;13.62;10.58;;;;;;;18.66;75.88;95632.58;1724098;83;21110;-70
2022/08/07 00:53:22;;;;;;;13.98;10.40;;;;;;;18.54;76.09;95638.91;1724240;83;21077;-70
2022/08/07 00:55:49;;;;;;;12.25;10.08;;;;;;;18.53;76.38;95643.01;1724441;82;20987;-70
2022/08/07 00:58:19;;;;;;;12.98;10.88;;;;;;;18.48;76.95;95645.05;1724176;82;21010;-70
2022/08/07 01:00:46;;;;;;;12.75;10.78;;;;;;;18.49;77.10;95651.63;1724275;83;20995;-70
2022/08/07 01:03:13;;;;;;;12.37;11.10;;;;;;;18.54;77.17;95647.40;1724167;83;21017;-71
2022/08/07 01:05:42;;;;;;;12.47;11.20;;;;;;;18.55;76.92;95650.48;1724460;83;20963;-70
2022/08/07 01:08:08;;;;;;;12.35;11.05;;;;;;;18.54;76.36;95644.25;1724308;83;21529;-70
2022/08/07 01:10:35;;;;;;;10.82;9.73;;;;;;;18.64;75.87;95654.50;1724251;83;21014;-70
2022/08/07 01:13:03;;;;;;;12.70;10.70;;;;;;;18.66;75.22;95649.95;1724208;82;21038;-70
2022/08/07 01:15:33;;;;;;;12.13;9.98;;;;;;;18.62;75.56;95651.89;1724486;83;21038;-70
2022/08/07 01:18:00;;;;;;;13.03;10.53;;;;;;;18.55;76.37;95651.82;1724245;83;21502;-70
2022/08/07 01:20:32;;;;;;;12.58;11.08;;;;;;;18.53;75.78;95644.34;1724397;83;21465;-70
2022/08/07 01:23:00;;;;;;;11.20;10.10;;;;;;;18.45;75.58;95647.39;1724930;83;21489;-70
2022/08/07 01:25:28;;;;;;;13.35;11.08;;;;;;;18.37;76.12;95646.91;1724159;83;20990;-70
2022/08/07 01:27:55;;;;;;;12.33;11.03;;;;;;;18.41;75.89;95649.80;1724172;83;21035;-70
2022/08/07 01:30:25;;;;;;;14.00;11.20;;;;;;;18.38;75.70;95654.83;1695821;83;21042;-70
2022/08/07 01:32:52;;;;;;;16.37;11.50;;;;;;;18.36;75.31;95649.16;1724311;83;21065;-70
2022/08/07 01:35:19;;;;;;;15.53;11.40;;;;;;;18.32;76.07;95644.45;1724241;82;21513;-70
2022/08/07 01:37:48;;;;;;;12.68;11.45;;;;;;;18.28;77.41;95648.67;1724548;83;21022;-70
2022/08/07 01:40:19;;;;;;;14.23;12.82;;;;;;;18.18;77.61;95644.72;1724374;83;21046;-70
2022/08/07 01:42:54;;;;;;;13.80;10.75;;;;;;;18.15;76.67;95655.94;1723960;83;21046;-70
2022/08/07 01:45:21;;;;;;;12.85;11.65;;;;;;;18.05;76.66;95660.45;1724335;82;20995;-70
2022/08/07 01:47:49;;;;;;;13.30;11.57;;;;;;;18.03;76.76;95660.52;1724315;83;21027;-70
2022/08/07 01:50:17;;;;;;;13.25;11.95;;;;;;;17.99;77.82;95657.58;1724303;82;21050;-70
2022/08/07 01:52:46;;;;;;;12.23;10.82;;;;;;;17.97;77.65;95659.48;1724269;83;21022;-70
2022/08/07 01:55:14;;;;;;;13.28;11.60;;;;;;;17.92;78.68;95661.50;1724331;83;21043;-70
2022/08/07 01:57:42;;;;;;;11.88;10.10;;;;;;;17.95;77.53;95660.88;1724349;83;21023;-70
2022/08/07 02:00:14;;;;;;;12.45;11.15;;;;;;;17.95;77.53;95660.88;1695527;83;21003;-70
2022/08/07 02:02:50;;;;;;;12.58;10.88;;;;;;;17.89;78.04;95658.50;1724443;82;21022;-70
2022/08/07 02:05:36;;;;;;;14.83;11.12;;;;;;;17.74;78.11;95648.50;1724297;83;21022;-70
2022/08/07 02:08:09;;;;;;;13.15;10.95;;;;;;;17.74;78.11;95648.50;1724198;83;21038;-70
2022/08/07 02:10:39;;;;;;;12.00;10.65;;;;;;;17.81;78.81;95650.44;1724216;83;21008;-70
2022/08/07 02:13:08;;;;;;;12.70;11.40;;;;;;;17.85;78.24;95655.56;1724197;83;20986;-70
2022/08/07 02:15:39;;;;;;;15.53;11.53;;;;;;;17.86;78.09;95651.95;1722968;83;21025;-70
2022/08/07 02:18:10;;;;;;;12.85;11.48;;;;;;;17.89;77.36;95649.16;1724316;82;20991;-70
2022/08/07 02:20:37;;;;;;;14.05;12.20;;;;;;;17.89;76.92;95651.83;1724229;82;21497;-70
2022/08/07 02:23:06;;;;;;;11.95;10.75;;;;;;;17.89;76.92;95651.83;1724278;82;21026;-70
2022/08/07 02:25:37;;;;;;;11.12;9.98;;;;;;;17.89;77.34;95659.84;1724458;83;21070;-70
2022/08/07 02:28:05;;;;;;;11.85;10.10;;;;;;;17.89;76.83;95660.28;1724305;82;21042;-70
2022/08/07 02:30:35;;;;;;;13.98;10.48;;;;;;;17.86;77.31;95660.43;1724401;83;21065;-70
2022/08/07 02:33:04;;;;;;;10.20;9.20;;;;;;;17.83;77.54;95661.44;1724383;83;21011;-70
2022/08/07 02:35:33;;;;;;;10.40;9.35;;;;;;;17.64;77.67;95656.50;1724314;83;21078;-70
2022/08/07 02:38:02;;;;;;;11.88;10.65;;;;;;;17.64;77.67;95656.50;1724443;83;21014;-70
2022/08/07 02:40:32;;;;;;;11.43;10.32;;;;;;;17.65;78.07;95664.45;1724421;83;20995;-70
2022/08/07 02:43:00;;;;;;;11.63;10.43;;;;;;;17.66;77.83;95663.97;1724357;82;21480;-70
2022/08/07 02:45:30;;;;;;;11.83;10.63;;;;;;;17.66;77.83;95663.97;1724505;82;20991;-70
2022/08/07 02:47:57;;;;;;;11.25;10.05;;;;;;;17.50;77.60;95663.81;1724373;83;21066;-70
2022/08/07 02:50:25;;;;;;;11.83;10.45;;;;;;;17.43;78.01;95669.88;1724382;83;21460;-70
2022/08/07 02:53:03;;;;;;;11.33;10.00;;;;;;;17.39;78.67;95670.96;1724061;83;21062;-70
2022/08/07 02:55:34;;;;;;;13.28;10.53;;;;;;;17.36;79.14;95668.44;1724326;83;21094;-70
2022/08/07 02:58:05;;;;;;;12.05;10.68;;;;;;;17.38;79.43;95671.02;1724600;83;21027;-70
2022/08/07 03:00:35;;;;;;;10.95;9.63;;;;;;;17.50;79.00;95670.48;1724411;83;21053;-70
2022/08/07 03:03:06;;;;;;;11.28;10.13;;;;;;;17.59;77.95;95672.74;1724370;83;21022;-70
2022/08/07 03:05:36;;;;;;;12.00;9.85;;;;;;;17.53;77.61;95672.52;1724672;83;21127;-70
2022/08/07 03:08:08;;;;;;;12.90;9.50;;;;;;;17.50;77.96;95671.34;1724470;83;21027;-70
2022/08/07 03:10:37;;;;;;;13.93;9.93;;;;;;;17.39;78.24;95669.63;1695872;83;20982;-70
2022/08/07 03:13:06;;;;;;;11.28;9.68;;;;;;;17.34;78.41;95672.97;1695841;83;21062;-70
2022/08/07 03:15:33;;;;;;;12.45;10.32;;;;;;;17.27;77.93;95675.50;1724322;83;21011;-70
2022/08/07 03:18:01;;;;;;;15.25;9.90;;;;;;;17.17;78.47;95674.16;1724388;83;21026;-70
2022/08/07 03:20:28;;;;;;;12.95;11.65;;;;;;;17.13;78.52;95671.22;1724403;83;21489;-70
2022/08/07 03:22:56;;;;;;;12.75;11.55;;;;;;;17.12;79.31;95668.16;1724356;83;21034;-70
2022/08/07 03:25:24;;;;;;;12.90;11.20;;;;;;;17.12;79.49;95674.36;1724466;83;20998;-70
2022/08/07 03:27:56;;;;;;;12.55;10.88;;;;;;;17.20;78.62;95672.22;1724519;83;21504;-70
2022/08/07 03:30:25;;;;;;;16.95;12.53;;;;;;;17.20;78.62;95672.22;1724296;83;21023;-70
2022/08/07 03:32:54;;;;;;;12.88;11.03;;;;;;;17.18;78.60;95670.08;1724277;83;21121;-70
2022/08/07 03:35:26;;;;;;;11.70;10.50;;;;;;;17.17;78.49;95669.69;1718418;82;21462;-70
2022/08/07 03:38:01;;;;;;;12.23;10.28;;;;;;;17.09;79.22;95670.02;1716379;84;21090;-70
2022/08/07 03:40:29;;;;;;;13.95;10.95;;;;;;;17.04;78.94;95665.83;1716544;83;20999;-70
2022/08/07 03:42:56;;;;;;;11.75;10.65;;;;;;;16.99;79.53;95666.49;1716364;84;21034;-70
2022/08/07 03:45:26;;;;;;;11.85;10.72;;;;;;;17.08;79.12;95676.30;1686335;84;21332;-70
2022/08/07 03:47:54;;;;;;;11.85;10.63;;;;;;;17.11;78.68;95671.30;1686605;84;21008;-70
2022/08/07 03:50:23;;;;;;;11.38;10.28;;;;;;;17.11;78.92;95675.30;1686764;84;21027;-70
2022/08/07 03:52:52;;;;;;;11.08;9.75;;;;;;;17.18;78.82;95677.22;1716417;83;21015;-70
2022/08/07 03:55:19;;;;;;;10.68;9.60;;;;;;;17.18;79.69;95677.22;1716460;83;21019;-70
2022/08/07 03:57:47;;;;;;;11.70;10.50;;;;;;;17.20;80.11;95674.02;1716569;83;21031;-70
2022/08/07 04:00:16;;;;;;;11.78;10.38;;;;;;;17.26;79.83;95677.30;1716215;84;21501;-70
2022/08/07 04:02:43;;;;;;;11.60;10.40;;;;;;;17.40;79.62;95675.83;1716417;83;21031;-70
2022/08/07 04:05:12;;;;;;;11.10;10.10;;;;;;;17.48;78.66;95681.67;1716065;83;21031;-70
2022/08/07 04:07:45;;;;;;;12.37;10.80;;;;;;;17.58;78.16;95674.13;1716319;83;21071;-70
2022/08/07 04:10:13;;;;;;;12.60;10.28;;;;;;;17.65;77.87;95675.12;1686557;84;20991;-70
2022/08/07 04:12:41;;;;;;;11.48;9.75;;;;;;;17.73;77.22;95686.30;1716121;84;21043;-70
2022/08/07 04:15:10;;;;;;;14.68;10.38;;;;;;;17.50;77.45;95692.67;1716305;84;21051;-70
2022/08/07 04:17:37;;;;;;;10.63;9.53;;;;;;;17.50;78.50;95690.48;1716365;84;21019;-70
2022/08/07 04:20:09;;;;;;;12.68;10.60;;;;;;;17.50;78.50;95690.48;1716248;83;21499;-70
2022/08/07 04:22:39;;;;;;;12.20;10.90;;;;;;;17.66;78.39;95695.99;1686163;84;21019;-70
2022/08/07 04:25:08;;;;;;;12.88;11.57;;;;;;;17.82;78.12;95693.55;1715692;84;21525;-70
2022/08/07 04:27:35;;;;;;;12.93;10.82;;;;;;;18.10;77.42;95699.82;1686108;84;21022;-70
2022/08/07 04:30:05;;;;;;;14.05;11.53;;;;;;;18.10;77.42;95699.82;1716391;83;21023;-70
2022/08/07 04:32:40;;;;;;;13.53;11.45;;;;;;;18.17;77.18;95693.27;1715156;84;21016;-70
2022/08/07 04:35:08;;;;;;;13.03;11.63;;;;;;;18.27;77.40;95704.35;1720551;83;21066;-70
2022/08/07 04:37:35;;;;;;;15.78;11.80;;;;;;;18.28;77.70;95706.10;1724383;83;21022;-70
2022/08/07 04:40:05;;;;;;;13.05;11.73;;;;;;;18.40;77.67;95708.20;1724299;83;21090;-70
2022/08/07 04:42:33;;;;;;;12.93;11.60;;;;;;;18.68;76.56;95706.88;1724257;83;21042;-70
2022/08/07 04:45:02;;;;;;;13.53;11.95;;;;;;;18.68;76.56;95706.88;1724362;83;21023;-70
2022/08/07 04:47:57;;;;;;;14.75;13.08;;;;;;;18.80;76.77;95707.16;1724298;83;21062;-70
2022/08/07 04:50:33;;;;;;;15.98;12.28;;;;;;;18.90;76.72;95707.58;1724399;83;21106;-70
2022/08/07 04:53:37;;;;;;;15.50;13.83;;;;;;;19.02;76.55;95702.08;1724406;83;20999;-70
2022/08/07 04:56:12;;;;;;;14.38;12.25;;;;;;;19.11;76.46;95703.44;1724146;83;21043;-70
2022/08/07 04:59:07;;;;;;;14.68;13.00;;;;;;;19.28;76.16;95704.78;1680478;83;22010;-70
2022/08/07 05:02:01;;;;;;;13.62;12.33;;;;;;;19.39;76.04;95702.89;1724314;83;21015;-70
2022/08/07 05:05:01;;;;;;;16.30;12.47;;;;;;;19.53;75.63;95708.84;1724425;83;21006;-70
2022/08/07 05:07:45;;;;;;;13.48;12.10;;;;;;;19.63;75.27;95701.62;1724474;83;21050;-70
2022/08/07 05:10:17;;;;;;;17.40;11.50;;;;;;;19.80;74.94;95706.09;1723971;82;21517;-70
2022/08/07 05:13:15;;;;;;;13.48;12.07;;;;;;;19.91;74.15;95705.54;1724256;83;21572;-70
2022/08/07 05:15:46;;;;;;;12.60;11.38;;;;;;;19.98;73.96;95707.39;1724596;83;21034;-70
2022/08/07 05:18:33;;;;;;;13.53;12.23;;;;;;;20.05;73.79;95714.16;1724409;83;21018;-70
2022/08/07 05:21:04;;;;;;;13.25;11.90;;;;;;;20.13;73.71;95713.26;1724353;83;21050;-70
2022/08/07 05:23:47;;;;;;;10.70;9.20;;;;;;;20.28;74.11;95716.92;1724327;83;21056;-70
2022/08/07 05:26:21;;;;;;;9.43;8.55;;;;;;;20.41;73.71;95713.97;1724426;83;20979;-70
2022/08/07 05:28:54;;;;;;;11.18;8.15;;;;;;;20.48;73.44;95710.45;1724403;82;21030;-70
2022/08/07 05:31:27;;;;;;;8.25;7.08;;;;;;;20.58;73.21;95713.05;1724283;83;20990;-70
2022/08/07 05:33:57;;;;;;;10.45;7.47;;;;;;;20.71;72.91;95714.55;1724219;83;21122;-70
2022/08/07 05:36:24;;;;;;;8.20;7.17;;;;;;;20.84;72.76;95715.61;1724395;83;21046;-70
2022/08/07 05:38:54;;;;;;;9.43;6.95;;;;;;;20.96;72.39;95717.59;1724089;83;21059;-70
2022/08/07 05:41:21;;;;;;;7.50;6.80;;;;;;;21.10;71.94;95720.80;1724460;82;21002;-70
2022/08/07 05:43:53;;;;;;;13.62;7.20;;;;;;;21.25;71.76;95715.02;1724383;83;21469;-70
2022/08/07 05:46:21;;;;;;;12.58;7.75;;;;;;;21.43;71.61;95718.45;1724112;82;21018;-70
2022/08/07 05:48:50;;;;;;;7.45;6.58;;;;;;;21.60;71.35;95718.80;1724241;83;21066;-70
2022/08/07 05:51:18;;;;;;;7.40;6.70;;;;;;;21.77;70.84;95717.30;1724150;83;21011;-70
2022/08/07 05:53:45;;;;;;;8.00;7.15;;;;;;;21.96;70.60;95720.20;1724443;82;21030;-70
2022/08/07 05:56:14;;;;;;;7.97;7.08;;;;;;;22.12;69.90;95720.09;1724282;83;21095;-70
2022/08/07 05:58:46;;;;;;;7.33;6.62;;;;;;;22.25;69.20;95715.70;1723943;83;21509;-70
2022/08/07 06:01:16;;;;;;;15.88;6.90;;;;;;;22.29;68.47;95719.94;1724453;83;21019;-70
2022/08/07 06:03:51;;;;;;;12.13;7.80;;;;;;;22.38;68.57;95718.03;1724487;83;21122;-70
2022/08/07 06:06:19;;;;;;;13.83;8.35;;;;;;;22.46;67.70;95711.67;1724509;82;21070;-70
2022/08/07 06:08:48;;;;;;;15.45;8.98;;;;;;;22.56;67.51;95716.48;1724400;83;21086;-70
2022/08/07 06:11:16;;;;;;;12.90;9.23;;;;;;;22.60;66.57;95713.50;1724432;83;21563;-70
2022/08/07 06:13:43;;;;;;;11.12;9.90;;;;;;;22.71;67.04;95715.48;1724302;82;21034;-70
2022/08/07 06:16:10;;;;;;;10.88;9.35;;;;;;;22.85;66.63;95713.23;1724442;82;21101;-70
2022/08/07 06:18:39;;;;;;;11.68;9.68;;;;;;;22.97;65.66;95716.50;1724450;83;21441;-70
2022/08/07 06:21:07;;;;;;;10.75;9.40;;;;;;;23.02;65.15;95710.81;1724386;82;21031;-70
2022/08/07 06:23:34;;;;;;;11.08;9.73;;;;;;;22.93;64.84;95708.23;1724464;82;21014;-70
2022/08/07 06:26:02;;;;;;;14.58;9.85;;;;;;;22.91;65.24;95715.53;1724375;83;21030;-70
2022/08/07 06:28:30;;;;;;;14.85;10.63;;;;;;;22.92;64.87;95717.73;1724588;82;21007;-70
2022/08/07 06:30:57;;;;;;;11.43;10.10;;;;;;;23.01;64.96;95721.21;1724330;83;21074;-70
2022/08/07 06:33:24;;;;;;;11.15;9.58;;;;;;;23.24;64.89;95722.38;1724333;83;21500;-70
2022/08/07 06:35:51;;;;;;;11.65;9.75;;;;;;;23.43;64.49;95726.02;1719759;83;21043;-70
2022/08/07 06:38:18;;;;;;;11.05;9.88;;;;;;;23.57;63.29;95727.80;1716592;84;21003;-70
2022/08/07 06:40:53;;;;;;;10.80;9.80;;;;;;;23.69;62.90;95727.83;1716240;83;21047;-70
2022/08/07 06:43:22;;;;;;;10.90;9.38;;;;;;;23.78;61.37;95728.19;1716636;83;21462;-70
2022/08/07 06:46:03;;;;;;;11.08;9.50;;;;;;;23.90;61.90;95724.16;1715809;84;21051;-70
2022/08/07 06:48:30;;;;;;;12.80;9.35;;;;;;;24.06;61.54;95722.59;1716283;83;21011;-70
2022/08/07 06:50:59;;;;;;;11.00;9.25;;;;;;;24.22;61.32;95729.59;1716472;83;21027;-70
2022/08/07 06:53:28;;;;;;;12.28;9.00;;;;;;;24.35;60.51;95724.59;1716461;83;21031;-70
2022/08/07 06:55:56;;;;;;;10.45;9.53;;;;;;;24.48;59.93;95726.45;1716277;83;21039;-70
2022/08/07 06:58:24;;;;;;;9.88;8.88;;;;;;;24.56;59.36;95724.05;1686399;84;21505;-70
2022/08/07 07:00:54;;;;;;;12.75;9.53;;;;;;;24.65;59.78;95715.30;1715913;84;21083;-70
2022/08/07 07:03:21;;;;;;;10.18;9.20;;;;;;;24.87;59.48;95716.42;1716410;83;20999;-70
2022/08/07 07:05:47;;;;;;;12.03;9.53;;;;;;;25.04;58.74;95716.89;1716530;83;21493;-70
2022/08/07 07:08:14;;;;;;;8.65;7.85;;;;;;;25.18;58.34;95709.16;1716011;83;20995;-70
2022/08/07 07:10:41;;;;;;;9.70;8.80;;;;;;;25.34;57.16;95708.86;1716443;83;21015;-70
2022/08/07 07:13:18;;;;;;;9.73;8.78;;;;;;;25.47;56.61;95706.95;1716516;83;21051;-70
2022/08/07 07:15:53;;;;;;;8.93;8.13;;;;;;;25.61;56.22;95707.27;1716254;83;21003;-70
2022/08/07 07:18:30;;;;;;;9.83;8.65;;;;;;;25.64;55.80;95711.56;1716447;83;21039;-70
2022/08/07 07:21:02;;;;;;;9.15;8.00;;;;;;;25.72;54.70;95717.23;1686575;84;20976;-70
2022/08/07 07:23:31;;;;;;;8.95;7.83;;;;;;;25.88;53.90;95712.42;1715909;83;21074;-70
2022/08/07 07:26:02;;;;;;;9.18;8.28;;;;;;;25.97;53.26;95711.33;1687089;84;21019;-70
2022/08/07 07:28:39;;;;;;;9.25;7.87;;;;;;;26.08;53.92;95712.68;1716267;84;21063;-70
2022/08/07 07:31:22;;;;;;;9.23;8.05;;;;;;;26.21;53.02;95712.61;1698146;84;21043;-70
2022/08/07 07:33:53;;;;;;;8.73;7.85;;;;;;;26.36;53.39;95712.74;1716421;83;21537;-70
2022/08/07 07:36:23;;;;;;;8.65;7.75;;;;;;;26.48;52.19;95720.34;1721735;83;21039;-70
2022/08/07 07:38:51;;;;;;;10.10;8.08;;;;;;;26.47;52.01;95717.29;1724386;83;21039;-70
2022/08/07 07:41:21;;;;;;;8.85;7.58;;;;;;;26.59;52.64;95718.19;1724393;83;21512;-70
2022/08/07 07:43:51;;;;;;;8.60;7.70;;;;;;;26.81;52.01;95714.09;1724176;82;21031;-70
2022/08/07 07:46:21;;;;;;;8.75;7.85;;;;;;;26.94;50.63;95712.13;1724597;82;20979;-70
2022/08/07 07:48:50;;;;;;;8.48;7.65;;;;;;;27.08;50.40;95709.62;1724371;83;21087;-70
2022/08/07 07:51:18;;;;;;;8.95;7.08;;;;;;;27.20;49.49;95717.27;1724137;83;21485;-70
2022/08/07 07:53:45;;;;;;;8.50;7.70;;;;;;;27.26;48.90;95709.97;1724362;83;21121;-70
2022/08/07 07:56:13;;;;;;;9.80;7.30;;;;;;;27.45;49.14;95716.58;1724511;83;20983;-69
2022/08/07 07:58:41;;;;;;;10.50;7.33;;;;;;;27.51;48.16;95710.63;1724196;83;21078;-70
2022/08/07 08:01:10;;;;;;;7.37;6.67;;;;;;;27.60;48.14;95712.57;1724236;83;21019;-69
2022/08/07 08:03:40;;;;;;;8.85;7.42;;;;;;;27.65;47.29;95710.83;1724332;83;21034;-70
2022/08/07 08:06:08;;;;;;;7.78;7.08;;;;;;;27.79;47.66;95714.56;1724324;82;21010;-69
2022/08/07 08:08:35;;;;;;;8.10;7.40;;;;;;;27.86;47.09;95713.08;1724312;83;21093;-70
2022/08/07 08:11:06;;;;;;;8.05;7.28;;;;;;;27.90;46.76;95706.92;1724370;83;21010;-70
2022/08/07 08:13:35;;;;;;;7.42;6.67;;;;;;;28.02;45.27;95708.55;1724385;83;21047;-70
2022/08/07 08:16:04;;;;;;;7.05;6.45;;;;;;;28.01;45.73;95706.84;1724296;83;21043;-70
2022/08/07 08:18:31;;;;;;;7.33;6.62;;;;;;;28.25;44.77;95705.22;1724193;82;21629;-70
2022/08/07 08:21:01;;;;;;;9.08;6.60;;;;;;;28.51;43.81;95710.23;1724558;83;21113;-70
2022/08/07 08:29:04;;;;;;;8.10;6.75;;;;;;;28.79;42.84;95702.70;1724447;82;21003;-75
2022/08/07 08:31:35;;;;;;;7.42;6.72;;;;;;;28.77;42.83;95694.33;1724659;83;20971;-75
2022/08/07 08:34:04;;;;;;;9.15;6.60;;;;;;;28.80;43.47;95697.61;1724058;83;21074;-75
2022/08/07 08:36:33;;;;;;;7.42;6.83;;;;;;;28.84;43.23;95704.50;1724307;83;21019;-75
2022/08/07 08:39:02;;;;;;;7.53;6.83;;;;;;;28.89;43.37;95703.58;1724370;83;21445;-76
2022/08/07 08:41:52;;;;;;;8.35;7.37;;;;;;;29.10;43.90;95702.16;1724402;83;21010;-67
2022/08/07 08:44:36;;;;;;;7.58;6.87;;;;;;;29.35;42.85;95705.36;1724811;83;21106;-67
2022/08/07 08:47:19;;;;;;;7.28;6.45;;;;;;;29.46;41.27;95699.81;1723326;83;21557;-66
2022/08/07 08:50:12;;;;;;;7.40;6.55;;;;;;;29.31;41.66;95703.94;1724487;82;21472;-67
2022/08/07 08:53:14;;;;;;;8.40;6.47;;;;;;;29.19;42.02;95705.06;1724515;82;20987;-67
2022/08/07 08:56:09;;;;;;;7.80;7.20;;;;;;;28.91;41.98;95704.81;1662255;86;21508;-66
2022/08/07 08:59:05;;;;;;;9.70;7.10;;;;;;;28.75;42.41;95703.10;1661961;86;21082;-67
2022/08/07 09:02:09;;;;;;;10.10;6.97;;;;;;;28.64;42.52;95703.56;1714817;83;21497;-67
2022/08/07 09:05:27;;;;;;;7.58;6.72;;;;;;;28.64;42.99;95705.42;1724533;83;21038;-67
2022/08/07 09:08:11;;;;;;;7.20;6.60;;;;;;;28.79;42.57;95704.55;1661976;86;21050;-67
2022/08/07 09:11:12;;;;;;;7.72;7.03;;;;;;;28.99;42.35;95691.39;1662152;86;21078;-67
2022/08/07 09:14:02;;;;;;;7.90;7.17;;;;;;;29.16;42.03;95689.90;1705690;83;21023;-67
2022/08/07 09:16:37;;;;;;;8.05;7.25;;;;;;;29.26;40.97;95693.99;1724098;83;21051;-66
2022/08/07 09:19:27;;;;;;;9.20;7.17;;;;;;;29.35;41.59;95694.48;1723824;83;21098;-66
2022/08/07 09:22:39;;;;;;;7.62;7.03;;;;;;;29.57;41.21;95687.92;1724056;83;21035;-67
2022/08/07 09:25:19;;;;;;;7.47;6.78;;;;;;;29.83;41.11;95684.66;1724279;82;21066;-66
2022/08/07 09:28:01;;;;;;;7.25;6.55;;;;;;;30.18;39.32;95682.66;1723374;83;21062;-72
2022/08/07 09:30:42;;;;;;;7.17;6.58;;;;;;;30.37;39.92;95683.16;1724383;83;21031;-69
2022/08/07 09:33:45;;;;;;;7.30;6.60;;;;;;;30.62;38.75;95679.77;1711276;83;21026;-69
2022/08/07 09:36:35;;;;;;;9.15;7.40;;;;;;;30.90;37.62;95670.78;1724143;83;21031;-71
2022/08/07 09:39:34;;;;;;;12.28;6.67;;;;;;;31.03;37.58;95675.36;1724523;83;21059;-70
2022/08/07 09:42:37;;;;;;;7.72;6.80;;;;;;;30.98;36.20;95674.97;1724451;83;21022;-70
2022/08/07 09:45:24;;;;;;;7.65;6.37;;;;;;;31.09;37.39;95657.03;1724312;83;20995;-70
2022/08/07 09:48:18;;;;;;;7.12;6.42;;;;;;;31.35;36.12;95658.52;1721108;83;21019;-71
2022/08/07 09:51:16;;;;;;;7.85;7.12;;;;;;;31.59;36.20;95657.06;1724234;82;21038;-71
2022/08/07 09:53:44;;;;;;;6.75;6.15;;;;;;;31.63;36.24;95657.11;1724418;83;21058;-71
2022/08/07 09:56:28;;;;;;;7.28;6.58;;;;;;;31.75;35.98;95659.92;1724516;83;20983;-72
2022/08/07 09:59:31;;;;;;;6.95;6.37;;;;;;;32.04;35.85;95650.64;1724346;83;21007;-71
2022/08/07 10:02:26;;;;;;;9.65;6.25;;;;;;;32.26;34.67;95655.58;1724255;82;21521;-70
2022/08/07 10:05:24;;;;;;;6.55;6.00;;;;;;;32.23;34.57;95655.91;1722885;83;21054;-70
2022/08/07 10:08:19;;;;;;;6.37;5.78;;;;;;;32.43;33.72;95645.62;1724345;83;21027;-70
2022/08/07 10:11:22;;;;;;;6.80;6.03;;;;;;;32.66;33.78;95644.58;1724315;83;21038;-70
2022/08/07 10:14:34;;;;;;;6.42;5.83;;;;;;;32.75;33.32;95646.30;1724324;83;21513;-70
2022/08/07 10:17:40;;;;;;;7.05;5.65;;;;;;;33.03;33.52;95639.78;1724247;83;21030;-70
2022/08/07 10:20:34;;;;;;;8.55;5.60;;;;;;;33.30;31.57;95639.52;1723634;83;21509;-71
2022/08/07 10:23:35;;;;;;;6.45;5.78;;;;;;;33.12;31.75;95641.02;1724417;82;21540;-70
2022/08/07 10:26:53;;;;;;;6.70;6.10;;;;;;;33.12;32.37;95632.81;1723745;83;21027;-70
2022/08/07 10:29:46;;;;;;;6.33;5.15;;;;;;;33.50;32.30;95632.38;1724518;82;20998;-71
2022/08/07 10:32:36;;;;;;;5.60;5.20;;;;;;;33.84;31.43;95626.77;1724136;82;21030;-70
2022/08/07 10:35:19;;;;;;;5.40;4.90;;;;;;;33.80;29.80;95625.41;1724182;82;21597;-68
2022/08/07 10:37:52;;;;;;;;;;;;;;;33.94;29.86;95627.44;1720000;82;21035;-70
2022/08/07 10:40:30;;;;;;;7.55;5.62;;;;;;;34.13;29.70;95618.58;1715459;84;20097;-72
2022/08/07 10:43:35;;;;;;;5.62;5.17;;;;;;;34.32;29.07;95607.22;1716546;83;21007;-72
2022/08/07 10:46:09;;;;;;;5.55;5.15;;;;;;;34.38;29.52;95613.91;1716287;83;21027;-71
2022/08/07 10:48:50;;;;;;;7.53;5.28;;;;;;;34.52;28.24;95618.63;1715481;84;21074;-72
2022/08/07 10:51:28;;;;;;;8.35;5.08;;;;;;;34.41;28.27;95608.91;1716509;84;21485;-73
2022/08/07 10:54:21;;;;;;;6.08;5.08;;;;;;;34.37;28.36;95617.66;1716574;83;21187;-72
2022/08/07 10:57:35;;;;;;;6.87;4.72;;;;;;;34.42;28.45;95609.27;1715974;84;21529;-72
2022/08/07 11:00:09;;;;;;;7.72;4.37;;;;;;;34.32;28.57;95609.11;1716095;84;21163;-73
2022/08/07 11:02:47;;;;;;;5.25;4.85;;;;;;;34.51;28.54;95609.23;1716261;84;21038;-75
2022/08/07 11:06:00;;;;;;;9.33;5.70;;;;;;;34.82;27.78;95604.67;1716416;83;20988;-70
2022/08/07 11:08:50;;;;;;;;;;;;;;;34.90;27.07;95607.89;1718726;83;21043;-71
2022/08/07 11:11:29;;;;;;;5.42;5.03;;;;;;;34.02;28.46;95612.89;1716374;83;20112;-69
2022/08/07 11:14:26;;;;;;;5.60;5.12;;;;;;;33.74;29.62;95605.06;1716335;83;21651;-74
2022/08/07 11:17:16;;;;;;;6.33;5.50;;;;;;;33.47;29.92;95602.11;1716443;84;21019;-71
2022/08/07 11:20:07;;;;;;;6.60;5.25;;;;;;;33.14;30.89;95605.31;1716433;83;21039;-77
2022/08/07 11:23:04;;;;;;;6.03;5.47;;;;;;;32.96;31.25;95598.55;1716664;83;21003;-78
2022/08/07 11:25:43;;;;;;;6.20;5.62;;;;;;;32.64;31.88;95596.06;1716166;84;21732;-72
2022/08/07 11:28:37;;;;;;;9.18;5.30;;;;;;;32.31;32.59;95605.95;1716432;83;21003;-73
2022/08/07 11:31:30;;;;;;;5.67;5.15;;;;;;;31.94;32.99;95605.72;1716503;83;21043;-69
2022/08/07 11:34:08;;;;;;;7.20;6.08;;;;;;;31.61;33.45;95608.67;1686160;84;21067;-70
2022/08/07 11:36:59;;;;;;;7.00;5.60;;;;;;;31.28;34.89;95614.31;1715494;84;21537;-75
2022/08/07 11:40:09;;;;;;;6.10;5.60;;;;;;;31.00;35.43;95612.49;1716256;83;21102;-72
2022/08/07 11:42:54;;;;;;;6.70;6.10;;;;;;;30.79;35.86;95607.30;1716290;83;21548;-71
2022/08/07 11:45:47;;;;;;;7.47;6.78;;;;;;;30.63;35.58;95605.73;1716532;83;21015;-71
2022/08/07 11:48:28;;;;;;;6.42;5.92;;;;;;;30.55;36.08;95605.13;1715803;84;21032;-71
2022/08/07 11:51:15;;;;;;;7.97;6.28;;;;;;;30.44;36.30;95601.22;1716291;83;21103;-73
2022/08/07 11:54:20;;;;;;;6.47;5.85;;;;;;;30.38;36.42;95594.52;1715341;84;21543;-66
2022/08/07 11:57:10;;;;;;;10.03;6.62;;;;;;;30.28;36.41;95590.98;1716433;83;21056;-69
2022/08/07 12:00:06;;;;;;;7.40;6.70;;;;;;;30.24;36.76;95588.23;1716252;84;21071;-74
2022/08/07 12:03:09;;;;;;;6.53;6.03;;;;;;;30.18;36.61;95595.06;1716276;83;21031;-73
2022/08/07 12:06:00;;;;;;;6.85;6.22;;;;;;;30.20;36.50;95593.57;1716694;83;21050;-68
2022/08/07 12:08:53;;;;;;;7.28;6.67;;;;;;;30.19;35.86;95587.27;1716608;83;21039;-68
2022/08/07 12:11:25;;;;;;;6.75;6.05;;;;;;;30.22;36.78;95588.84;1716346;84;21032;-74
2022/08/07 12:14:12;;;;;;;6.83;6.22;;;;;;;30.25;36.82;95582.27;1715610;84;21470;-72